createdAt,value
2022-08-17T00:00:43.678Z,0.00
2022-08-17T00:01:20.098Z,0.00
2022-08-17T00:02:25.910Z,0.00
2022-08-17T00:03:19.966Z,0.00
2022-08-17T00:04:19.980Z,0.00
2022-08-17T00:05:19.951Z,0.00
2022-08-17T00:06:19.945Z,0.00
2022-08-17T00:07:19.927Z,0.00
2022-08-17T00:08:19.914Z,0.00
2022-08-17T00:09:19.909Z,0.00
2022-08-17T00:10:19.916Z,0.00
2022-08-17T00:11:19.888Z,0.00
2022-08-17T00:12:43.356Z,0.00
2022-08-17T00:13:19.869Z,0.00
2022-08-17T00:14:19.857Z,0.00
2022-08-17T00:15:19.847Z,0.00
2022-08-17T00:16:19.870Z,0.00
2022-08-17T00:17:19.833Z,0.00
2022-08-17T00:18:58.370Z,0.00
2022-08-17T00:19:19.823Z,0.00
2022-08-17T00:20:19.810Z,0.00
2022-08-17T00:21:23.898Z,0.00
2022-08-17T00:22:33.695Z,0.00
2022-08-17T00:23:19.771Z,0.00
2022-08-17T00:24:19.771Z,0.00
2022-08-17T00:25:19.762Z,0.00
2022-08-17T00:26:44.198Z,0.00
2022-08-17T00:27:19.756Z,0.00
2022-08-17T00:28:19.767Z,0.00
2022-08-17T00:29:20.345Z,0.00
2022-08-17T00:30:19.727Z,0.00
2022-08-17T00:31:19.718Z,0.00
2022-08-17T00:33:13.920Z,0.00
2022-08-17T00:33:19.702Z,0.00
2022-08-17T00:34:19.709Z,0.00
2022-08-17T00:35:19.665Z,0.00
2022-08-17T00:36:19.668Z,0.00
2022-08-17T00:37:19.662Z,0.00
2022-08-17T00:38:19.661Z,0.00
2022-08-17T00:39:19.655Z,0.00
2022-08-17T00:40:19.656Z,0.00
2022-08-17T00:41:19.632Z,0.00
2022-08-17T00:42:19.613Z,0.00
2022-08-17T00:43:19.600Z,0.00
2022-08-17T00:44:19.599Z,0.00
2022-08-17T00:45:19.580Z,0.00
2022-08-17T00:46:19.600Z,0.00
2022-08-17T00:47:19.574Z,0.00
2022-08-17T00:48:26.190Z,0.00
2022-08-17T00:49:19.549Z,0.00
2022-08-17T00:50:19.542Z,0.00
2022-08-17T00:51:19.546Z,0.00
2022-08-17T00:52:19.558Z,0.00
2022-08-17T00:53:19.513Z,0.00
2022-08-17T00:54:19.505Z,0.00
2022-08-17T00:55:19.507Z,0.00
2022-08-17T00:56:19.508Z,0.00
2022-08-17T00:57:19.489Z,0.00
2022-08-17T00:58:19.507Z,0.00
2022-08-17T00:59:19.469Z,0.00
2022-08-17T01:00:19.460Z,0.00
2022-08-17T01:01:21.526Z,0.00
2022-08-17T01:02:19.438Z,0.00
2022-08-17T01:03:19.440Z,0.00
2022-08-17T01:04:19.438Z,0.00
2022-08-17T01:05:19.411Z,0.00
2022-08-17T01:06:19.399Z,0.00
2022-08-17T01:07:19.403Z,0.00
2022-08-17T01:08:19.403Z,0.00
2022-08-17T01:09:19.371Z,0.00
2022-08-17T01:10:58.842Z,0.00
2022-08-17T01:11:19.362Z,0.00
2022-08-17T01:12:19.365Z,0.00
2022-08-17T01:13:19.341Z,0.00
2022-08-17T01:14:19.353Z,0.00
2022-08-17T01:15:19.323Z,0.00
2022-08-17T01:16:19.332Z,0.00
2022-08-17T01:17:19.318Z,0.00
2022-08-17T01:18:19.317Z,0.00
2022-08-17T01:19:19.299Z,0.00
2022-08-17T01:20:19.298Z,0.00
2022-08-17T01:21:19.267Z,0.00
2022-08-17T01:22:19.275Z,0.00
2022-08-17T01:23:20.971Z,0.00
2022-08-17T01:24:19.261Z,0.00
2022-08-17T01:25:19.250Z,0.00
2022-08-17T01:26:19.237Z,0.00
2022-08-17T01:27:20.596Z,0.00
2022-08-17T01:28:33.393Z,0.00
2022-08-17T01:29:19.212Z,0.00
2022-08-17T01:30:56.523Z,0.00
2022-08-17T01:31:19.193Z,0.00
2022-08-17T01:32:19.181Z,0.00
2022-08-17T01:33:19.181Z,0.00
2022-08-17T01:34:19.181Z,0.00
2022-08-17T01:35:19.164Z,0.00
2022-08-17T01:36:19.145Z,0.00
2022-08-17T01:37:19.134Z,0.00
2022-08-17T01:38:19.144Z,0.00
2022-08-17T01:39:19.112Z,0.00
2022-08-17T01:40:19.213Z,0.00
2022-08-17T01:41:19.094Z,0.00
2022-08-17T01:42:19.095Z,0.00
2022-08-17T01:43:19.087Z,0.00
2022-08-17T01:44:19.075Z,0.00
2022-08-17T01:45:19.079Z,0.00
2022-08-17T01:46:19.089Z,0.00
2022-08-17T01:47:19.045Z,0.00
2022-08-17T01:48:19.040Z,0.00
2022-08-17T01:49:19.041Z,0.00
2022-08-17T01:50:19.018Z,0.00
2022-08-17T01:51:19.027Z,0.00
2022-08-17T01:52:19.041Z,0.00
2022-08-17T01:53:19.002Z,0.00
2022-08-17T01:54:19.001Z,0.00
2022-08-17T01:55:18.970Z,0.00
2022-08-17T01:56:18.969Z,0.00
2022-08-17T01:57:18.964Z,0.00
2022-08-17T01:58:19.090Z,0.00
2022-08-17T01:59:18.940Z,0.00
2022-08-17T02:00:18.944Z,0.00
2022-08-17T02:01:18.989Z,0.00
2022-08-17T02:02:30.857Z,0.00
2022-08-17T02:03:18.902Z,0.00
2022-08-17T02:04:18.938Z,0.00
2022-08-17T02:05:18.897Z,0.00
2022-08-17T02:06:27.650Z,0.00
2022-08-17T02:07:18.864Z,0.00
2022-08-17T02:08:20.038Z,0.00
2022-08-17T02:09:18.853Z,0.00
2022-08-17T02:10:20.346Z,0.00
2022-08-17T02:11:18.849Z,0.00
2022-08-17T02:12:39.174Z,0.00
2022-08-17T02:13:18.830Z,0.00
2022-08-17T02:14:18.808Z,0.00
2022-08-17T02:15:18.798Z,0.00
2022-08-17T02:16:18.811Z,0.00
2022-08-17T02:17:18.781Z,0.00
2022-08-17T02:18:18.778Z,0.00
2022-08-17T02:19:18.772Z,0.00
2022-08-17T02:20:18.760Z,0.00
2022-08-17T02:21:18.765Z,0.00
2022-08-17T02:22:18.774Z,0.00
2022-08-17T02:23:18.730Z,0.00
2022-08-17T02:24:58.026Z,0.00
2022-08-17T02:25:18.743Z,0.00
2022-08-17T02:26:25.830Z,0.00
2022-08-17T02:27:18.705Z,0.00
2022-08-17T02:28:18.727Z,0.00
2022-08-17T02:29:18.688Z,0.00
2022-08-17T02:30:59.308Z,0.00
2022-08-17T02:31:18.654Z,0.00
2022-08-17T02:32:25.349Z,0.00
2022-08-17T02:33:18.659Z,0.00
2022-08-17T02:34:18.679Z,0.00
2022-08-17T02:35:20.082Z,0.00
2022-08-17T02:36:18.617Z,0.00
2022-08-17T02:37:18.620Z,0.00
2022-08-17T02:38:18.620Z,0.00
2022-08-17T02:39:18.601Z,0.00
2022-08-17T02:40:18.607Z,0.00
2022-08-17T02:41:18.568Z,0.00
2022-08-17T02:42:18.569Z,0.00
2022-08-17T02:43:18.563Z,0.00
2022-08-17T02:44:39.280Z,0.00
2022-08-17T02:45:18.553Z,0.00
2022-08-17T02:46:18.564Z,0.00
2022-08-17T02:47:18.521Z,0.00
2022-08-17T02:48:30.521Z,0.00
2022-08-17T02:49:18.515Z,0.00
2022-08-17T02:50:18.492Z,0.00
2022-08-17T02:51:18.498Z,0.00
2022-08-17T02:52:18.593Z,0.00
2022-08-17T02:53:18.478Z,0.00
2022-08-17T02:54:39.226Z,0.00
2022-08-17T02:55:18.447Z,0.00
2022-08-17T02:56:18.447Z,0.00
2022-08-17T02:57:18.434Z,0.00
2022-08-17T02:58:18.462Z,0.00
2022-08-17T02:59:18.429Z,0.00
2022-08-17T03:00:18.420Z,0.00
2022-08-17T03:01:18.443Z,0.00
2022-08-17T03:02:18.411Z,0.00
2022-08-17T03:03:18.381Z,0.00
2022-08-17T03:04:18.402Z,0.00
2022-08-17T03:05:18.359Z,0.00
2022-08-17T03:06:18.361Z,0.00
2022-08-17T03:07:18.354Z,0.00
2022-08-17T03:08:18.340Z,0.00
2022-08-17T03:09:18.330Z,0.00
2022-08-17T03:10:18.333Z,0.00
2022-08-17T03:11:18.327Z,0.00
2022-08-17T03:12:18.317Z,0.00
2022-08-17T03:13:18.291Z,0.00
2022-08-17T03:14:18.282Z,0.00
2022-08-17T03:15:18.294Z,0.00
2022-08-17T03:16:18.297Z,0.00
2022-08-17T03:17:18.266Z,0.00
2022-08-17T03:18:19.367Z,0.00
2022-08-17T03:19:18.235Z,0.00
2022-08-17T03:20:18.248Z,0.00
2022-08-17T03:21:18.224Z,0.00
2022-08-17T03:22:35.848Z,0.00
2022-08-17T03:23:18.219Z,0.00
2022-08-17T03:24:18.196Z,0.00
2022-08-17T03:25:19.594Z,0.00
2022-08-17T03:26:18.198Z,0.00
2022-08-17T03:27:18.168Z,0.00
2022-08-17T03:28:18.193Z,0.00
2022-08-17T03:29:18.148Z,0.00
2022-08-17T03:30:18.165Z,0.00
2022-08-17T03:31:18.142Z,0.00
2022-08-17T03:32:18.130Z,0.00
2022-08-17T03:33:18.125Z,0.00
2022-08-17T03:34:18.144Z,0.00
2022-08-17T03:35:18.101Z,0.00
2022-08-17T03:36:18.102Z,0.00
2022-08-17T03:37:18.095Z,0.00
2022-08-17T03:38:18.075Z,0.00
2022-08-17T03:39:18.076Z,0.00
2022-08-17T03:40:18.087Z,0.00
2022-08-17T03:41:18.056Z,0.00
2022-08-17T03:42:31.929Z,0.00
2022-08-17T03:43:18.039Z,0.00
2022-08-17T03:44:18.039Z,0.00
2022-08-17T03:45:18.029Z,0.00
2022-08-17T03:46:27.866Z,0.00
2022-08-17T03:47:17.996Z,0.00
2022-08-17T03:48:17.997Z,0.00
2022-08-17T03:49:17.990Z,0.00
2022-08-17T03:50:17.982Z,0.00
2022-08-17T03:51:17.959Z,0.00
2022-08-17T03:52:17.990Z,0.00
2022-08-17T03:53:17.952Z,0.00
2022-08-17T03:54:17.930Z,4.00
2022-08-17T03:55:17.945Z,0.00
2022-08-17T03:56:17.931Z,0.00
2022-08-17T03:57:17.910Z,0.00
2022-08-17T03:58:17.934Z,4.00
2022-08-17T03:59:20.975Z,0.00
2022-08-17T04:00:17.912Z,4.00
2022-08-17T04:01:17.989Z,0.00
2022-08-17T04:02:17.875Z,4.00
2022-08-17T04:03:17.863Z,4.00
2022-08-17T04:04:17.853Z,4.00
2022-08-17T04:05:17.857Z,4.00
2022-08-17T04:06:17.824Z,4.00
2022-08-17T04:07:17.825Z,8.00
2022-08-17T04:08:17.814Z,8.00
2022-08-17T04:09:17.805Z,8.00
2022-08-17T04:10:17.810Z,12.00
2022-08-17T04:11:17.786Z,12.00
2022-08-17T04:12:17.789Z,16.00
2022-08-17T04:13:25.687Z,16.00
2022-08-17T04:14:17.757Z,16.00
2022-08-17T04:15:17.758Z,20.00
2022-08-17T04:16:17.781Z,24.00
2022-08-17T04:17:17.739Z,24.00
2022-08-17T04:18:17.729Z,28.00
2022-08-17T04:19:17.719Z,32.00
2022-08-17T04:20:17.721Z,36.00
2022-08-17T04:21:17.714Z,36.00
2022-08-17T04:22:30.152Z,40.00
2022-08-17T04:23:17.681Z,44.00
2022-08-17T04:24:17.685Z,48.00
2022-08-17T04:25:17.662Z,56.00
2022-08-17T04:26:52.241Z,56.00
2022-08-17T04:27:17.666Z,64.00
2022-08-17T04:28:17.656Z,68.00
2022-08-17T04:29:17.637Z,76.00
2022-08-17T04:30:17.614Z,84.00
2022-08-17T04:31:17.615Z,92.00
2022-08-17T04:32:21.749Z,100.00
2022-08-17T04:33:17.612Z,112.00
2022-08-17T04:34:19.578Z,124.00
2022-08-17T04:35:17.589Z,136.00
2022-08-17T04:36:17.581Z,148.00
2022-08-17T04:37:17.559Z,160.00
2022-08-17T04:38:17.550Z,176.00
2022-08-17T04:39:17.550Z,184.00
2022-08-17T04:40:17.560Z,200.00
2022-08-17T04:41:17.528Z,204.00
2022-08-17T04:42:17.523Z,212.00
2022-08-17T04:43:18.653Z,228.00
2022-08-17T04:44:27.229Z,236.00
2022-08-17T04:45:17.490Z,252.00
2022-08-17T04:46:17.501Z,272.00
2022-08-17T04:47:17.484Z,292.00
2022-08-17T04:48:17.478Z,304.00
2022-08-17T04:49:17.451Z,312.00
2022-08-17T04:50:17.456Z,324.00
2022-08-17T04:51:17.454Z,340.00
2022-08-17T04:52:29.737Z,364.00
2022-08-17T04:53:17.437Z,384.00
2022-08-17T04:54:17.404Z,396.00
2022-08-17T04:55:17.418Z,404.00
2022-08-17T04:56:18.315Z,416.00
2022-08-17T04:57:17.399Z,432.00
2022-08-17T04:58:17.480Z,444.00
2022-08-17T04:59:17.379Z,464.00
2022-08-17T05:00:17.357Z,488.00
2022-08-17T05:01:17.408Z,512.00
2022-08-17T05:02:17.350Z,540.00
2022-08-17T05:03:17.342Z,564.00
2022-08-17T05:04:32.996Z,584.00
2022-08-17T05:05:17.319Z,612.00
2022-08-17T05:06:17.313Z,644.00
2022-08-17T05:07:22.580Z,684.00
2022-08-17T05:08:17.304Z,716.00
2022-08-17T05:09:17.295Z,740.00
2022-08-17T05:10:17.276Z,752.00
2022-08-17T05:11:17.275Z,776.00
2022-08-17T05:12:17.270Z,812.00
2022-08-17T05:13:17.255Z,816.00
2022-08-17T05:14:17.246Z,812.00
2022-08-17T05:15:17.237Z,796.00
2022-08-17T05:16:17.233Z,768.00
2022-08-17T05:17:17.227Z,752.00
2022-08-17T05:18:17.197Z,764.00
2022-08-17T05:19:17.212Z,796.00
2022-08-17T05:20:17.184Z,832.00
2022-08-17T05:21:17.189Z,892.00
2022-08-17T05:22:17.190Z,952.00
2022-08-17T05:23:17.156Z,988.00
2022-08-17T05:24:40.753Z,1060.00
2022-08-17T05:25:17.151Z,1128.00
2022-08-17T05:26:26.190Z,1196.00
2022-08-17T05:27:19.080Z,1212.00
2022-08-17T05:28:17.142Z,1184.00
2022-08-17T05:29:17.123Z,1124.00
2022-08-17T05:30:17.089Z,1088.00
2022-08-17T05:31:17.115Z,1120.00
2022-08-17T05:32:39.221Z,1172.00
2022-08-17T05:33:17.084Z,1348.00
2022-08-17T05:34:17.071Z,1528.00
2022-08-17T05:35:17.051Z,1652.00
2022-08-17T05:36:38.071Z,1788.00
2022-08-17T05:37:17.041Z,1804.00
2022-08-17T05:38:17.023Z,1808.00
2022-08-17T05:39:17.477Z,1680.00
2022-08-17T05:40:17.016Z,1672.00
2022-08-17T05:41:17.018Z,1612.00
2022-08-17T05:42:16.985Z,1400.00
2022-08-17T05:43:16.999Z,1332.00
2022-08-17T05:44:16.967Z,1308.00
2022-08-17T05:45:16.966Z,1380.00
2022-08-17T05:46:16.966Z,1408.00
2022-08-17T05:47:16.955Z,1540.00
2022-08-17T05:48:16.954Z,1708.00
2022-08-17T05:49:16.929Z,1532.00
2022-08-17T05:50:18.041Z,1316.00
2022-08-17T05:51:16.924Z,1192.00
2022-08-17T05:52:20.129Z,1212.00
2022-08-17T05:53:16.921Z,1232.00
2022-08-17T05:54:16.890Z,1204.00
2022-08-17T05:55:16.881Z,1108.00
2022-08-17T05:56:29.722Z,1028.00
2022-08-17T05:57:16.862Z,1028.00
2022-08-17T05:58:16.853Z,1052.00
2022-08-17T05:59:16.848Z,1084.00
2022-08-17T06:00:16.847Z,1116.00
2022-08-17T06:01:16.914Z,1156.00
2022-08-17T06:02:16.814Z,1268.00
2022-08-17T06:03:16.803Z,1344.00
2022-08-17T06:04:16.828Z,1812.00
2022-08-17T06:05:16.807Z,1836.00
2022-08-17T06:06:16.776Z,1672.00
2022-08-17T06:07:16.790Z,1592.00
2022-08-17T06:08:16.766Z,1212.00
2022-08-17T06:09:21.186Z,1776.00
2022-08-17T06:10:16.771Z,1516.00
2022-08-17T06:11:16.751Z,1284.00
2022-08-17T06:12:19.707Z,1080.00
2022-08-17T06:13:16.720Z,1040.00
2022-08-17T06:14:16.708Z,936.00
2022-08-17T06:15:16.699Z,1040.00
2022-08-17T06:16:33.627Z,1056.00
2022-08-17T06:17:16.702Z,980.00
2022-08-17T06:18:19.146Z,984.00
2022-08-17T06:19:16.670Z,1064.00
2022-08-17T06:20:16.661Z,1336.00
2022-08-17T06:21:16.653Z,1492.00
2022-08-17T06:22:16.671Z,2064.00
2022-08-17T06:23:16.647Z,2324.00
2022-08-17T06:24:16.642Z,2604.00
2022-08-17T06:25:16.613Z,2880.00
2022-08-17T06:26:16.603Z,3084.00
2022-08-17T06:27:16.595Z,2940.00
2022-08-17T06:28:16.628Z,3136.00
2022-08-17T06:29:18.883Z,3272.00
2022-08-17T06:30:16.566Z,2148.00
2022-08-17T06:31:16.569Z,2324.00
2022-08-17T06:32:16.555Z,2580.00
2022-08-17T06:33:16.548Z,2712.00
2022-08-17T06:34:16.563Z,2748.00
2022-08-17T06:35:16.530Z,3064.00
2022-08-17T06:36:16.518Z,4200.00
2022-08-17T06:37:16.509Z,8820.00
2022-08-17T06:38:38.363Z,16704.00
2022-08-17T06:39:16.505Z,10392.00
2022-08-17T06:40:16.575Z,7788.00
2022-08-17T06:41:16.491Z,3068.00
2022-08-17T06:43:02.465Z,4596.00
2022-08-17T06:43:16.476Z,4956.00
2022-08-17T06:44:43.211Z,2572.00
2022-08-17T06:45:16.443Z,1868.00
2022-08-17T06:46:16.443Z,1828.00
2022-08-17T06:47:16.424Z,1800.00
2022-08-17T06:48:16.429Z,2080.00
2022-08-17T06:49:16.418Z,1944.00
2022-08-17T06:50:16.408Z,5364.00
2022-08-17T06:51:16.406Z,3484.00
2022-08-17T06:52:42.112Z,2608.00
2022-08-17T06:53:16.380Z,2028.00
2022-08-17T06:54:16.357Z,2888.00
2022-08-17T06:55:18.965Z,2272.00
2022-08-17T06:56:16.338Z,4564.00
2022-08-17T06:57:16.352Z,4244.00
2022-08-17T06:58:16.974Z,4172.00
2022-08-17T06:59:16.332Z,4200.00
2022-08-17T07:00:16.307Z,4200.00
2022-08-17T07:01:16.372Z,4224.00
2022-08-17T07:02:16.288Z,4264.00
2022-08-17T07:03:16.294Z,4328.00
2022-08-17T07:04:16.290Z,4352.00
2022-08-17T07:05:16.281Z,4380.00
2022-08-17T07:06:16.265Z,4448.00
2022-08-17T07:07:16.243Z,4540.00
2022-08-17T07:08:16.245Z,4800.00
2022-08-17T07:09:16.250Z,5072.00
2022-08-17T07:10:16.237Z,5380.00
2022-08-17T07:11:16.229Z,5652.00
2022-08-17T07:12:16.209Z,5904.00
2022-08-17T07:13:16.195Z,3992.00
2022-08-17T07:14:17.504Z,9152.00
2022-08-17T07:15:16.176Z,12064.00
2022-08-17T07:16:16.199Z,1712.00
2022-08-17T07:17:16.170Z,1812.00
2022-08-17T07:18:16.146Z,2000.00
2022-08-17T07:19:16.147Z,2112.00
2022-08-17T07:20:16.171Z,2176.00
2022-08-17T07:21:18.526Z,2368.00
2022-08-17T07:22:16.141Z,2872.00
2022-08-17T07:23:16.121Z,12092.00
2022-08-17T07:24:29.213Z,9452.00
2022-08-17T07:25:16.123Z,5888.00
2022-08-17T07:26:16.079Z,10124.00
2022-08-17T07:27:16.072Z,7976.00
2022-08-17T07:28:16.072Z,7076.00
2022-08-17T07:29:16.067Z,6136.00
2022-08-17T07:30:16.057Z,8276.00
2022-08-17T07:31:16.034Z,9016.00
2022-08-17T07:32:16.023Z,7188.00
2022-08-17T07:33:16.036Z,5608.00
2022-08-17T07:34:16.027Z,5780.00
2022-08-17T07:35:16.024Z,6788.00
2022-08-17T07:36:15.989Z,6916.00
2022-08-17T07:37:15.985Z,6612.00
2022-08-17T07:38:25.506Z,8108.00
2022-08-17T07:39:15.980Z,9844.00
2022-08-17T07:40:16.945Z,15360.00
2022-08-17T07:41:15.962Z,14528.00
2022-08-17T07:42:15.951Z,6692.00
2022-08-17T07:43:21.821Z,6204.00
2022-08-17T07:44:15.933Z,6148.00
2022-08-17T07:45:15.931Z,11740.00
2022-08-17T07:46:15.920Z,6556.00
2022-08-17T07:47:15.902Z,15936.00
2022-08-17T07:48:15.888Z,8200.00
2022-08-17T07:49:15.881Z,8340.00
2022-08-17T07:50:15.862Z,6648.00
2022-08-17T07:51:15.863Z,6380.00
2022-08-17T07:52:48.436Z,6320.00
2022-08-17T07:53:15.843Z,6552.00
2022-08-17T07:54:15.862Z,5984.00
2022-08-17T07:55:15.839Z,6116.00
2022-08-17T07:56:15.814Z,6256.00
2022-08-17T07:57:15.807Z,6260.00
2022-08-17T07:58:15.820Z,6292.00
2022-08-17T07:59:15.810Z,6328.00
2022-08-17T08:00:16.347Z,6032.00
2022-08-17T08:01:15.844Z,6608.00
2022-08-17T08:02:16.866Z,6584.00
2022-08-17T08:03:15.758Z,6508.00
2022-08-17T08:04:19.374Z,6508.00
2022-08-17T08:05:15.738Z,6228.00
2022-08-17T08:06:15.729Z,6264.00
2022-08-17T08:07:15.721Z,6168.00
2022-08-17T08:08:15.724Z,6000.00
2022-08-17T08:09:15.715Z,6124.00
2022-08-17T08:10:15.725Z,6484.00
2022-08-17T08:11:15.795Z,6720.00
2022-08-17T08:12:15.983Z,6544.00
2022-08-17T08:13:15.662Z,6880.00
2022-08-17T08:14:15.676Z,6720.00
2022-08-17T08:15:15.645Z,6828.00
2022-08-17T08:16:15.685Z,6980.00
2022-08-17T08:17:15.645Z,7124.00
2022-08-17T08:18:15.639Z,7256.00
2022-08-17T08:19:20.536Z,7588.00
2022-08-17T08:20:42.507Z,7504.00
2022-08-17T08:21:15.613Z,7260.00
2022-08-17T08:22:15.606Z,6676.00
2022-08-17T08:23:15.591Z,6524.00
2022-08-17T08:24:15.577Z,7164.00
2022-08-17T08:25:15.585Z,6636.00
2022-08-17T08:26:18.608Z,7040.00
2022-08-17T08:27:15.554Z,6984.00
2022-08-17T08:28:15.563Z,6836.00
2022-08-17T08:29:15.527Z,5704.00
2022-08-17T08:30:15.534Z,5604.00
2022-08-17T08:31:15.512Z,6028.00
2022-08-17T08:32:15.525Z,5972.00
2022-08-17T08:33:15.493Z,6748.00
2022-08-17T08:34:58.958Z,8068.00
2022-08-17T08:35:15.474Z,8912.00
2022-08-17T08:37:14.314Z,9348.00
2022-08-17T08:37:22.612Z,10808.00
2022-08-17T08:38:15.456Z,11116.00
2022-08-17T08:39:15.457Z,11400.00
2022-08-17T08:40:15.550Z,11980.00
2022-08-17T08:41:15.426Z,12780.00
2022-08-17T08:42:15.433Z,13028.00
2022-08-17T08:43:15.408Z,13396.00
2022-08-17T08:44:15.420Z,12772.00
2022-08-17T08:45:15.388Z,15200.00
2022-08-17T08:46:15.510Z,18624.00
2022-08-17T08:47:15.393Z,14628.00
2022-08-17T08:48:46.167Z,22656.00
2022-08-17T08:49:15.374Z,26880.00
2022-08-17T08:50:37.142Z,37536.00
2022-08-17T08:51:15.354Z,38944.00
2022-08-17T08:52:15.351Z,36640.00
2022-08-17T08:53:15.335Z,38944.00
2022-08-17T08:54:15.322Z,39392.00
2022-08-17T08:55:15.317Z,41536.00
2022-08-17T08:56:15.323Z,49376.00
2022-08-17T08:57:26.914Z,44128.00
2022-08-17T08:58:31.973Z,30752.00
2022-08-17T08:59:15.274Z,28480.00
2022-08-17T09:00:15.290Z,26752.00
2022-08-17T09:01:16.999Z,29216.00
2022-08-17T09:02:15.269Z,21984.00
2022-08-17T09:03:15.262Z,10376.00
2022-08-17T09:04:24.601Z,24032.00
2022-08-17T09:05:15.999Z,25664.00
2022-08-17T09:06:28.682Z,26176.00
2022-08-17T09:07:15.221Z,27040.00
2022-08-17T09:08:15.210Z,17984.00
2022-08-17T09:09:15.199Z,14812.00
2022-08-17T09:10:15.210Z,29440.00
2022-08-17T09:11:15.193Z,43552.00
2022-08-17T09:12:15.178Z,31232.00
2022-08-17T09:13:15.161Z,20480.00
2022-08-17T09:14:21.157Z,14932.00
2022-08-17T09:15:15.153Z,10700.00
2022-08-17T09:16:15.165Z,10704.00
2022-08-17T09:17:15.173Z,10388.00
2022-08-17T09:19:01.748Z,13480.00
2022-08-17T09:19:15.114Z,11520.00
2022-08-17T09:20:27.448Z,9832.00
2022-08-17T09:21:15.111Z,11288.00
2022-08-17T09:22:15.127Z,11444.00
2022-08-17T09:23:15.099Z,10248.00
2022-08-17T09:24:15.078Z,9652.00
2022-08-17T09:25:15.066Z,7884.00
2022-08-17T09:26:15.058Z,8432.00
2022-08-17T09:27:15.051Z,8404.00
2022-08-17T09:28:15.071Z,8108.00
2022-08-17T09:29:15.052Z,7660.00
2022-08-17T09:30:15.044Z,8364.00
2022-08-17T09:31:15.009Z,8220.00
2022-08-17T09:32:15.023Z,8124.00
2022-08-17T09:33:14.999Z,8160.00
2022-08-17T09:34:15.012Z,8484.00
2022-08-17T09:35:14.995Z,13756.00
2022-08-17T09:36:14.995Z,14420.00
2022-08-17T09:37:14.976Z,12860.00
2022-08-17T09:38:14.955Z,14088.00
2022-08-17T09:39:14.943Z,15712.00
2022-08-17T09:40:15.051Z,21408.00
2022-08-17T09:41:14.932Z,18976.00
2022-08-17T09:42:14.924Z,15520.00
2022-08-17T09:43:14.928Z,13360.00
2022-08-17T09:44:23.084Z,9724.00
2022-08-17T09:45:14.912Z,9600.00
2022-08-17T09:46:14.920Z,7964.00
2022-08-17T09:47:14.877Z,6808.00
2022-08-17T09:48:14.870Z,7832.00
2022-08-17T09:49:14.873Z,9564.00
2022-08-17T09:50:14.859Z,7924.00
2022-08-17T09:51:14.854Z,6136.00
2022-08-17T09:52:14.875Z,5784.00
2022-08-17T09:53:14.824Z,6304.00
2022-08-17T09:54:37.621Z,6288.00
2022-08-17T09:55:14.825Z,6144.00
2022-08-17T09:56:14.801Z,6220.00
2022-08-17T09:57:31.677Z,6068.00
2022-08-17T09:58:14.893Z,5924.00
2022-08-17T09:59:14.774Z,6140.00
2022-08-17T10:00:14.860Z,6324.00
2022-08-17T10:01:14.821Z,6288.00
2022-08-17T10:02:14.757Z,6264.00
2022-08-17T10:03:14.735Z,6312.00
2022-08-17T10:04:16.146Z,6200.00
2022-08-17T10:05:14.732Z,5940.00
2022-08-17T10:06:14.730Z,5972.00
2022-08-17T10:07:14.706Z,5448.00
2022-08-17T10:08:14.697Z,5172.00
2022-08-17T10:09:14.701Z,5396.00
2022-08-17T10:10:14.806Z,4624.00
2022-08-17T10:11:14.683Z,4772.00
2022-08-17T10:12:15.690Z,5240.00
2022-08-17T10:13:14.662Z,4732.00
2022-08-17T10:14:36.703Z,5936.00
2022-08-17T10:15:14.744Z,6044.00
2022-08-17T10:16:14.649Z,5872.00
2022-08-17T10:17:14.634Z,5748.00
2022-08-17T10:18:14.628Z,5688.00
2022-08-17T10:19:14.617Z,5448.00
2022-08-17T10:20:14.710Z,5200.00
2022-08-17T10:21:14.584Z,5568.00
2022-08-17T10:22:35.043Z,5660.00
2022-08-17T10:23:14.584Z,5544.00
2022-08-17T10:24:14.581Z,5108.00
2022-08-17T10:25:23.980Z,5160.00
2022-08-17T10:26:14.560Z,5072.00
2022-08-17T10:27:14.537Z,5048.00
2022-08-17T10:28:15.872Z,4748.00
2022-08-17T10:29:14.539Z,4736.00
2022-08-17T10:30:14.527Z,5120.00
2022-08-17T10:31:34.249Z,5352.00
2022-08-17T10:32:14.538Z,5076.00
2022-08-17T10:33:14.479Z,4876.00
2022-08-17T10:34:14.512Z,4676.00
2022-08-17T10:35:14.475Z,5144.00
2022-08-17T10:36:14.460Z,4860.00
2022-08-17T10:37:14.450Z,5248.00
2022-08-17T10:38:14.465Z,4888.00
2022-08-17T10:39:14.446Z,4916.00
2022-08-17T10:40:14.568Z,4972.00
2022-08-17T10:41:14.413Z,4860.00
2022-08-17T10:42:14.456Z,4812.00
2022-08-17T10:43:14.403Z,4588.00
2022-08-17T10:44:38.144Z,4796.00
2022-08-17T10:45:14.387Z,4960.00
2022-08-17T10:46:31.228Z,4608.00
2022-08-17T10:47:14.366Z,4456.00
2022-08-17T10:48:14.406Z,4924.00
2022-08-17T10:49:14.346Z,5048.00
2022-08-17T10:50:14.346Z,4988.00
2022-08-17T10:51:14.345Z,4484.00
2022-08-17T10:52:14.436Z,4512.00
2022-08-17T10:53:19.400Z,4360.00
2022-08-17T10:54:14.322Z,4016.00
2022-08-17T10:55:14.301Z,4900.00
2022-08-17T10:56:14.325Z,4960.00
2022-08-17T10:57:14.281Z,4796.00
2022-08-17T10:58:14.295Z,4628.00
2022-08-17T10:59:14.261Z,4428.00
2022-08-17T11:00:14.263Z,4264.00
2022-08-17T11:01:14.349Z,4180.00
2022-08-17T11:02:14.309Z,4240.00
2022-08-17T11:03:14.232Z,4200.00
2022-08-17T11:04:14.252Z,4128.00
2022-08-17T11:05:14.213Z,4080.00
2022-08-17T11:06:14.221Z,4044.00
2022-08-17T11:07:14.210Z,3596.00
2022-08-17T11:08:14.208Z,3064.00
2022-08-17T11:09:14.177Z,3184.00
2022-08-17T11:10:14.212Z,3056.00
2022-08-17T11:11:14.156Z,3040.00
2022-08-17T11:12:14.158Z,3796.00
2022-08-17T11:13:14.161Z,5156.00
2022-08-17T11:14:14.138Z,4968.00
2022-08-17T11:15:14.147Z,4584.00
2022-08-17T11:16:14.143Z,4492.00
2022-08-17T11:17:14.109Z,4256.00
2022-08-17T11:18:14.112Z,4036.00
2022-08-17T11:19:14.090Z,3872.00
2022-08-17T11:20:14.107Z,3772.00
2022-08-17T11:21:14.081Z,3696.00
2022-08-17T11:22:14.095Z,3656.00
2022-08-17T11:23:14.063Z,3624.00
2022-08-17T11:24:14.076Z,3596.00
2022-08-17T11:25:14.043Z,3568.00
2022-08-17T11:26:14.049Z,3536.00
2022-08-17T11:27:14.045Z,3520.00
2022-08-17T11:28:14.062Z,3496.00
2022-08-17T11:29:14.015Z,3488.00
2022-08-17T11:30:14.015Z,3492.00
2022-08-17T11:31:13.997Z,3456.00
2022-08-17T11:32:14.077Z,3440.00
2022-08-17T11:33:13.977Z,3428.00
2022-08-17T11:34:13.987Z,3424.00
2022-08-17T11:35:13.969Z,3444.00
2022-08-17T11:36:13.979Z,3488.00
2022-08-17T11:37:13.962Z,3444.00
2022-08-17T11:38:16.086Z,3496.00
2022-08-17T11:39:13.952Z,3624.00
2022-08-17T11:40:13.975Z,3844.00
2022-08-17T11:41:13.919Z,3720.00
2022-08-17T11:42:13.925Z,4044.00
2022-08-17T11:43:13.902Z,3444.00
2022-08-17T11:44:13.906Z,2812.00
2022-08-17T11:45:17.577Z,3268.00
2022-08-17T11:46:13.893Z,3780.00
2022-08-17T11:47:13.871Z,4260.00
2022-08-17T11:48:27.820Z,3888.00
2022-08-17T11:49:13.854Z,3868.00
2022-08-17T11:50:13.867Z,4260.00
2022-08-17T11:51:13.835Z,4332.00
2022-08-17T11:52:13.861Z,5188.00
2022-08-17T11:53:13.817Z,5680.00
2022-08-17T11:54:32.251Z,5652.00
2022-08-17T11:55:34.746Z,5324.00
2022-08-17T11:56:13.814Z,4860.00
2022-08-17T11:57:13.803Z,4600.00
2022-08-17T11:58:13.798Z,4272.00
2022-08-17T11:59:13.769Z,4228.00
2022-08-17T12:00:13.871Z,3748.00
2022-08-17T12:01:16.238Z,3756.00
2022-08-17T12:02:13.765Z,3804.00
2022-08-17T12:03:13.834Z,3672.00
2022-08-17T12:04:13.785Z,3288.00
2022-08-17T12:05:13.722Z,3224.00
2022-08-17T12:06:13.726Z,3212.00
2022-08-17T12:07:13.716Z,3200.00
2022-08-17T12:08:13.715Z,3056.00
2022-08-17T12:09:13.683Z,2948.00
2022-08-17T12:10:13.705Z,2876.00
2022-08-17T12:11:13.664Z,2640.00
2022-08-17T12:12:14.448Z,2436.00
2022-08-17T12:13:13.665Z,2532.00
2022-08-17T12:14:18.420Z,2364.00
2022-08-17T12:15:13.651Z,2488.00
2022-08-17T12:16:13.682Z,2540.00
2022-08-17T12:17:13.632Z,2588.00
2022-08-17T12:18:13.632Z,2528.00
2022-08-17T12:19:13.612Z,2536.00
2022-08-17T12:20:14.702Z,2576.00
2022-08-17T12:21:13.590Z,2920.00
2022-08-17T12:22:13.605Z,3336.00
2022-08-17T12:23:13.583Z,3272.00
2022-08-17T12:24:13.561Z,3144.00
2022-08-17T12:25:13.565Z,2896.00
2022-08-17T12:26:13.543Z,3044.00
2022-08-17T12:27:13.554Z,3344.00
2022-08-17T12:28:17.944Z,3548.00
2022-08-17T12:29:17.869Z,3528.00